createdAt,value
2023-03-24T00:02:13.711Z,13.70
2023-03-24T00:04:44.238Z,13.70
2023-03-24T00:07:16.184Z,13.80
2023-03-24T00:09:47.258Z,13.70
2023-03-24T00:12:18.660Z,13.70
2023-03-24T00:14:49.274Z,13.70
2023-03-24T00:17:25.486Z,13.70
2023-03-24T00:19:56.123Z,13.70
2023-03-24T00:22:28.317Z,13.70
2023-03-24T00:24:58.401Z,13.80
2023-03-24T00:27:30.536Z,13.80
2023-03-24T00:30:03.902Z,13.90
2023-03-24T00:32:36.965Z,13.90
2023-03-24T00:35:08.939Z,14.00
2023-03-24T00:37:39.761Z,14.00
2023-03-24T00:40:12.646Z,14.10
2023-03-24T00:42:46.239Z,14.10
2023-03-24T00:45:18.276Z,14.10
2023-03-24T00:47:54.483Z,14.00
2023-03-24T00:50:27.562Z,14.10
2023-03-24T00:52:58.585Z,14.10
2023-03-24T00:55:28.903Z,14.10
2023-03-24T00:58:01.155Z,14.10
2023-03-24T01:00:31.162Z,14.10
2023-03-24T01:03:03.772Z,14.20
2023-03-24T01:05:36.537Z,14.20
2023-03-24T01:08:08.461Z,14.20
2023-03-24T01:10:42.795Z,14.20
2023-03-24T01:13:13.086Z,14.20
2023-03-24T01:15:43.237Z,14.20
2023-03-24T01:18:16.477Z,14.20
2023-03-24T01:20:49.244Z,14.30
2023-03-24T01:23:22.470Z,14.30
2023-03-24T01:25:53.377Z,14.30
2023-03-24T01:28:27.325Z,14.40
2023-03-24T01:30:57.569Z,14.40
2023-03-24T01:33:30.263Z,14.40
2023-03-24T01:36:00.486Z,14.50
2023-03-24T01:38:30.508Z,14.60
2023-03-24T01:41:00.523Z,14.50
2023-03-24T01:43:33.802Z,14.60
2023-03-24T01:46:26.725Z,14.60
2023-03-24T01:49:03.185Z,14.50
2023-03-24T01:51:36.407Z,14.60
2023-03-24T01:54:11.035Z,14.40
2023-03-24T01:56:44.041Z,14.30
2023-03-24T01:59:21.284Z,14.20
2023-03-24T02:01:52.311Z,14.20
2023-03-24T02:04:25.889Z,14.20
2023-03-24T02:06:56.806Z,14.10
2023-03-24T02:09:26.902Z,14.10
2023-03-24T02:11:57.929Z,14.10
2023-03-24T02:14:28.722Z,14.10
2023-03-24T02:17:13.991Z,14.10
2023-03-24T02:20:15.189Z,14.10
2023-03-24T02:23:15.795Z,14.00
2023-03-24T02:26:21.205Z,14.00
2023-03-24T02:28:55.981Z,14.00
2023-03-24T02:31:44.547Z,14.00
2023-03-24T02:34:43.865Z,14.10
2023-03-24T02:37:32.804Z,14.10
2023-03-24T02:40:33.052Z,14.20
2023-03-24T02:43:19.585Z,14.10
2023-03-24T02:46:01.746Z,14.30
2023-03-24T02:48:37.914Z,14.20
2023-03-24T02:51:14.740Z,14.20
2023-03-24T02:53:54.812Z,14.20
2023-03-24T02:56:35.254Z,14.20
2023-03-24T02:59:07.569Z,14.40
2023-03-24T03:01:41.421Z,14.50
2023-03-24T03:04:16.137Z,14.50
2023-03-24T03:06:51.328Z,14.70
2023-03-24T03:09:24.344Z,14.70
2023-03-24T03:12:00.772Z,14.80
2023-03-24T03:14:36.925Z,14.90
2023-03-24T03:17:11.693Z,14.90
2023-03-24T03:19:44.963Z,14.90
2023-03-24T03:22:20.896Z,14.90
2023-03-24T03:24:54.617Z,14.90
2023-03-24T03:27:31.462Z,14.90
2023-03-24T03:30:05.749Z,14.90
2023-03-24T03:32:39.279Z,14.80
2023-03-24T03:35:14.255Z,14.80
2023-03-24T03:37:49.278Z,14.70
2023-03-24T03:40:23.473Z,14.70
2023-03-24T03:42:56.367Z,14.60
2023-03-24T03:45:26.456Z,14.60
2023-03-24T03:47:56.789Z,14.60
2023-03-24T03:50:26.855Z,14.70
2023-03-24T03:52:57.650Z,14.70
2023-03-24T03:55:27.801Z,14.70
2023-03-24T03:58:00.548Z,14.70
2023-03-24T04:00:31.085Z,14.70
2023-03-24T04:03:23.951Z,14.70
2023-03-24T04:06:01.966Z,14.80
2023-03-24T04:08:42.125Z,14.80
2023-03-24T04:11:37.142Z,14.90
2023-03-24T04:14:17.389Z,14.90
2023-03-24T04:17:00.864Z,14.90
2023-03-24T04:19:43.340Z,14.90
2023-03-24T04:22:28.365Z,14.80
2023-03-24T04:25:02.798Z,14.80
2023-03-24T04:27:40.196Z,14.90
2023-03-24T04:30:19.438Z,14.80
2023-03-24T04:32:52.143Z,14.80
2023-03-24T04:35:32.027Z,14.90
2023-03-24T04:38:06.245Z,14.90
2023-03-24T04:40:42.115Z,14.90
2023-03-24T04:43:17.245Z,14.90
2023-03-24T04:45:50.799Z,14.90
2023-03-24T04:48:21.869Z,14.90
2023-03-24T04:50:57.454Z,14.90
2023-03-24T04:53:27.603Z,15.00
2023-03-24T04:56:07.557Z,15.10
2023-03-24T04:58:37.500Z,15.00
2023-03-24T05:01:10.190Z,15.00
2023-03-24T05:03:40.208Z,15.00
2023-03-24T05:06:12.958Z,15.00
2023-03-24T05:08:43.246Z,15.00
2023-03-24T05:11:13.082Z,15.00
2023-03-24T05:13:42.898Z,14.90
2023-03-24T05:16:16.213Z,14.80
2023-03-24T05:18:46.389Z,14.80
2023-03-24T05:21:16.501Z,14.70
2023-03-24T05:23:46.361Z,14.60
2023-03-24T05:26:16.360Z,14.40
2023-03-24T05:28:46.216Z,14.20
2023-03-24T05:31:18.765Z,14.00
2023-03-24T05:33:48.803Z,13.70
2023-03-24T05:36:18.771Z,13.50
2023-03-24T05:38:48.653Z,13.40
2023-03-24T05:41:18.483Z,13.30
2023-03-24T05:43:48.345Z,13.20
2023-03-24T05:46:20.917Z,13.10
2023-03-24T05:48:51.376Z,13.00
2023-03-24T05:51:21.313Z,13.00
2023-03-24T05:53:52.172Z,12.90
2023-03-24T05:56:22.134Z,12.90
2023-03-24T05:58:52.633Z,13.00
2023-03-24T06:01:25.456Z,13.00
2023-03-24T06:03:55.664Z,12.90
2023-03-24T06:06:26.373Z,12.90
2023-03-24T06:08:58.635Z,12.80
2023-03-24T06:11:28.551Z,12.90
2023-03-24T06:16:50.053Z,12.90
2023-03-24T06:19:22.664Z,12.80
2023-03-24T06:21:52.849Z,12.80
2023-03-24T06:24:23.111Z,12.80
2023-03-24T06:26:53.075Z,12.70
2023-03-24T06:29:22.965Z,12.70
2023-03-24T06:31:55.527Z,12.70
2023-03-24T06:34:25.494Z,12.70
2023-03-24T06:36:55.662Z,12.70
2023-03-24T06:39:26.492Z,12.70
2023-03-24T06:41:56.342Z,12.70
2023-03-24T06:44:26.336Z,12.90
2023-03-24T06:46:58.776Z,13.00
2023-03-24T06:49:28.802Z,12.90
2023-03-24T06:51:58.662Z,13.00
2023-03-24T06:54:28.821Z,13.00
2023-03-24T06:56:59.343Z,13.10
2023-03-24T06:59:29.685Z,13.10
2023-03-24T07:02:02.329Z,13.10
2023-03-24T07:04:36.779Z,13.20
2023-03-24T07:09:42.653Z,13.20
2023-03-24T07:12:14.619Z,13.30
2023-03-24T07:14:44.893Z,13.30
2023-03-24T07:17:17.356Z,13.30
2023-03-24T07:19:47.712Z,13.40
2023-03-24T07:22:17.672Z,13.40
2023-03-24T07:24:47.507Z,13.40
2023-03-24T07:27:17.328Z,13.30
2023-03-24T07:29:47.211Z,13.30
2023-03-24T07:32:19.685Z,13.40
2023-03-24T07:34:49.717Z,13.30
2023-03-24T07:37:19.607Z,13.30
2023-03-24T07:39:49.425Z,13.20
2023-03-24T07:42:19.229Z,13.20
2023-03-24T07:44:49.098Z,13.10
2023-03-24T07:47:21.637Z,13.10
2023-03-24T07:49:51.466Z,13.00
2023-03-24T07:52:21.347Z,13.10
2023-03-24T07:54:52.039Z,13.10
2023-03-24T07:57:21.904Z,13.00
2023-03-24T07:59:51.988Z,13.00
2023-03-24T08:02:24.566Z,13.10
2023-03-24T08:04:56.709Z,13.00
2023-03-24T08:07:26.525Z,13.00
2023-03-24T08:09:56.632Z,13.00
2023-03-24T08:12:26.462Z,13.00
2023-03-24T08:14:56.371Z,13.00
2023-03-24T08:17:28.866Z,13.00
2023-03-24T08:20:01.452Z,13.00
2023-03-24T08:22:32.543Z,13.00
2023-03-24T08:25:02.418Z,13.00
2023-03-24T08:27:32.315Z,13.00
2023-03-24T08:30:02.206Z,13.00
2023-03-24T08:32:34.736Z,13.10
2023-03-24T08:35:06.115Z,13.10
2023-03-24T08:37:36.275Z,13.20
2023-03-24T08:40:07.242Z,13.20
2023-03-24T08:42:37.043Z,13.30
2023-03-24T08:45:07.650Z,13.30
2023-03-24T08:47:40.463Z,13.40
2023-03-24T08:50:12.128Z,13.50
2023-03-24T08:52:42.133Z,13.50
2023-03-24T08:55:12.832Z,13.60
2023-03-24T08:57:42.673Z,13.70
2023-03-24T09:00:15.538Z,13.60
2023-03-24T09:02:49.381Z,13.80
2023-03-24T09:05:24.585Z,13.80
2023-03-24T09:08:00.519Z,13.90
2023-03-24T09:10:30.417Z,13.90
2023-03-24T09:13:00.347Z,14.00
2023-03-24T09:15:30.238Z,14.00
2023-03-24T09:18:02.964Z,14.20
2023-03-24T09:20:32.810Z,14.20
2023-03-24T09:23:02.613Z,14.20
2023-03-24T09:25:32.506Z,14.20
2023-03-24T09:28:02.512Z,14.20
2023-03-24T09:30:34.663Z,14.10
2023-03-24T09:33:07.780Z,14.00
2023-03-24T09:35:39.069Z,14.00
2023-03-24T09:38:10.829Z,14.00
2023-03-24T09:40:42.805Z,14.00
2023-03-24T09:43:25.668Z,14.00
2023-03-24T09:45:58.218Z,14.10
2023-03-24T09:48:38.080Z,14.30
2023-03-24T09:51:13.152Z,14.50
2023-03-24T09:53:49.513Z,14.50
2023-03-24T09:56:21.529Z,14.70
2023-03-24T09:58:56.114Z,14.90
2023-03-24T10:01:26.573Z,15.00
2023-03-24T10:04:01.647Z,15.00
2023-03-24T10:06:40.122Z,15.20
2023-03-24T10:09:20.775Z,15.20
2023-03-24T10:12:00.398Z,15.70
2023-03-24T10:14:55.464Z,15.90
2023-03-24T10:17:28.418Z,16.10
2023-03-24T10:20:08.864Z,16.10
2023-03-24T10:22:47.014Z,16.20
2023-03-24T10:25:24.260Z,16.20
2023-03-24T10:28:00.430Z,16.30
2023-03-24T10:30:33.195Z,16.20
2023-03-24T10:33:04.005Z,16.20
2023-03-24T10:35:39.692Z,16.20
2023-03-24T10:38:18.820Z,16.20
2023-03-24T10:40:50.194Z,16.20
2023-03-24T10:43:22.150Z,16.10
2023-03-24T10:45:55.510Z,15.90
2023-03-24T10:48:39.050Z,15.90
2023-03-24T10:51:18.122Z,15.90
2023-03-24T10:53:50.772Z,15.90
2023-03-24T10:56:21.938Z,16.00
2023-03-24T10:58:51.859Z,15.90
2023-03-24T11:01:27.494Z,15.90
2023-03-24T11:04:04.704Z,15.90
2023-03-24T11:06:37.776Z,16.20
2023-03-24T11:09:14.190Z,16.20
2023-03-24T11:11:44.145Z,16.50
2023-03-24T11:14:26.620Z,16.60
2023-03-24T11:17:05.321Z,16.70
2023-03-24T11:19:38.166Z,16.90
2023-03-24T11:22:13.697Z,17.00
2023-03-24T11:24:43.711Z,17.00
2023-03-24T11:27:18.577Z,17.00
2023-03-24T11:29:53.980Z,16.90
2023-03-24T11:32:30.014Z,16.80
2023-03-24T11:35:07.335Z,16.80
2023-03-24T11:37:41.519Z,16.70
2023-03-24T11:40:29.209Z,16.70
2023-03-24T11:43:03.053Z,16.50
2023-03-24T11:45:39.711Z,16.40
2023-03-24T11:48:28.841Z,16.30
2023-03-24T11:51:01.547Z,16.20
2023-03-24T11:53:41.775Z,16.10
2023-03-24T11:56:20.358Z,15.80
2023-03-24T11:58:53.125Z,15.60
2023-03-24T12:01:31.412Z,15.40
2023-03-24T12:04:22.061Z,15.50
2023-03-24T12:07:08.021Z,15.40
2023-03-24T12:09:45.646Z,15.40
2023-03-24T12:12:32.007Z,15.40
2023-03-24T12:15:28.012Z,15.40
2023-03-24T12:18:11.382Z,15.50
2023-03-24T12:20:48.620Z,15.60
2023-03-24T12:23:25.121Z,15.80
2023-03-24T12:26:16.631Z,16.10
2023-03-24T12:29:01.632Z,16.10
2023-03-24T12:32:08.413Z,16.30
2023-03-24T12:35:19.518Z,16.10
2023-03-24T12:37:55.136Z,15.90
2023-03-24T12:40:59.269Z,15.80
2023-03-24T12:43:41.268Z,15.80
2023-03-24T12:46:23.291Z,15.80
2023-03-24T12:49:04.106Z,15.70
2023-03-24T12:51:43.217Z,15.60
2023-03-24T12:54:28.031Z,15.60
2023-03-24T12:57:01.892Z,15.60
2023-03-24T12:59:41.375Z,15.60
2023-03-24T13:02:29.938Z,15.60
2023-03-24T13:05:05.595Z,15.70
2023-03-24T13:07:39.364Z,15.70
2023-03-24T13:10:18.207Z,15.60
2023-03-24T13:12:53.806Z,15.20
2023-03-24T13:15:30.420Z,14.00
2023-03-24T13:18:20.947Z,13.00
2023-03-24T13:20:55.421Z,12.80
2023-03-24T13:23:40.144Z,12.50
2023-03-24T13:26:20.597Z,12.10
2023-03-24T13:28:59.156Z,12.00
2023-03-24T13:31:35.863Z,11.90
2023-03-24T13:34:07.953Z,11.90
2023-03-24T13:36:47.478Z,11.90
2023-03-24T13:39:19.822Z,11.90
2023-03-24T13:41:53.367Z,11.90
2023-03-24T13:44:26.069Z,12.00
2023-03-24T13:47:14.903Z,11.60
2023-03-24T13:49:50.239Z,11.50
2023-03-24T13:52:33.646Z,11.40
2023-03-24T13:55:05.764Z,11.40
2023-03-24T13:57:35.722Z,11.70
2023-03-24T14:00:20.454Z,11.60
2023-03-24T14:02:54.119Z,11.70
2023-03-24T14:05:35.050Z,11.70
2023-03-24T14:08:20.000Z,11.80
2023-03-24T14:10:53.589Z,11.60
2023-03-24T14:13:38.221Z,11.60
2023-03-24T14:16:40.822Z,11.50
2023-03-24T14:19:26.410Z,11.50
2023-03-24T14:22:13.386Z,11.40
2023-03-24T14:24:46.060Z,11.40
2023-03-24T14:27:42.738Z,11.30
2023-03-24T14:30:25.105Z,11.10
2023-03-24T14:32:57.767Z,11.20
2023-03-24T14:35:37.178Z,11.30
2023-03-24T14:38:10.242Z,11.30
2023-03-24T14:40:42.399Z,11.30
2023-03-24T14:43:25.989Z,11.10
2023-03-24T14:46:00.059Z,11.10
2023-03-24T14:48:45.366Z,11.00
2023-03-24T14:51:45.072Z,11.10
2023-03-24T14:54:19.981Z,11.20
2023-03-24T14:57:01.966Z,11.20
2023-03-24T14:59:42.261Z,11.20
2023-03-24T15:02:27.227Z,11.40
2023-03-24T15:05:18.217Z,11.40
2023-03-24T15:08:01.181Z,11.50
2023-03-24T15:10:38.461Z,11.50
2023-03-24T15:13:32.378Z,11.50
2023-03-24T15:16:03.453Z,11.60
2023-03-24T15:18:33.761Z,11.50
2023-03-24T15:21:03.621Z,11.70
2023-03-24T15:23:33.517Z,11.70
2023-03-24T15:26:03.482Z,11.70
2023-03-24T15:28:36.323Z,11.80
2023-03-24T15:31:06.487Z,11.80
2023-03-24T15:33:42.143Z,11.90
2023-03-24T15:36:18.926Z,11.90
2023-03-24T15:38:51.301Z,12.00
2023-03-24T15:41:23.217Z,12.00
2023-03-24T15:43:56.820Z,12.00
2023-03-24T15:46:30.215Z,12.10
2023-03-24T15:49:04.149Z,12.20
2023-03-24T15:51:50.971Z,12.20
2023-03-24T15:54:26.832Z,12.40
2023-03-24T15:57:21.980Z,12.30
2023-03-24T15:59:54.882Z,12.40
2023-03-24T16:02:33.182Z,12.40
2023-03-24T16:05:10.757Z,12.40
2023-03-24T16:07:41.639Z,12.50
2023-03-24T16:10:32.292Z,12.60
2023-03-24T16:13:20.914Z,12.60
2023-03-24T16:15:59.685Z,12.80
2023-03-24T16:18:34.892Z,12.80
2023-03-24T16:21:06.514Z,12.90
2023-03-24T16:23:36.479Z,13.00
2023-03-24T16:26:06.637Z,12.90
2023-03-24T16:28:37.430Z,12.90
2023-03-24T16:31:10.483Z,12.90
2023-03-24T16:33:40.371Z,12.90
2023-03-24T16:36:13.652Z,12.80
2023-03-24T16:38:45.211Z,12.90
2023-03-24T16:41:15.225Z,12.90
2023-03-24T16:43:45.777Z,12.80
2023-03-24T16:46:22.787Z,12.90
2023-03-24T16:48:52.709Z,12.90
2023-03-24T16:51:22.709Z,13.00
2023-03-24T16:53:52.728Z,13.10
2023-03-24T16:56:24.409Z,13.00
2023-03-24T16:58:56.466Z,13.10
2023-03-24T17:01:36.048Z,13.00
2023-03-24T17:04:09.727Z,13.00
2023-03-24T17:06:41.213Z,12.80
2023-03-24T17:09:11.178Z,12.80
2023-03-24T17:11:43.411Z,12.70
2023-03-24T17:14:14.832Z,12.60
2023-03-24T17:16:50.753Z,12.60
2023-03-24T17:19:22.710Z,12.50
2023-03-24T17:21:57.430Z,12.40
2023-03-24T17:24:28.478Z,12.30
2023-03-24T17:26:58.698Z,12.30
2023-03-24T17:29:28.829Z,12.20
2023-03-24T17:32:01.289Z,12.20
2023-03-24T17:34:31.213Z,12.00
2023-03-24T17:37:01.075Z,11.90
2023-03-24T17:39:31.180Z,11.90
2023-03-24T17:42:01.623Z,11.90
2023-03-24T17:44:31.594Z,11.80
2023-03-24T17:47:04.102Z,11.70
2023-03-24T17:49:34.010Z,11.60
2023-03-24T17:52:03.863Z,11.60
2023-03-24T17:54:33.788Z,11.60
2023-03-24T17:57:03.825Z,11.50
2023-03-24T17:59:33.745Z,11.50
2023-03-24T18:02:06.600Z,11.50
2023-03-24T18:04:36.784Z,11.40
2023-03-24T18:07:06.925Z,11.30
2023-03-24T18:09:38.034Z,11.40
2023-03-24T18:12:08.173Z,11.30
2023-03-24T18:14:38.029Z,11.30
2023-03-24T18:17:10.630Z,11.20
2023-03-24T18:19:40.875Z,11.20
2023-03-24T18:22:11.172Z,11.10
2023-03-24T18:24:41.129Z,11.10
2023-03-24T18:27:11.595Z,11.10
2023-03-24T18:29:41.934Z,11.00
2023-03-24T18:32:14.773Z,11.00
2023-03-24T18:34:45.462Z,11.00
2023-03-24T18:37:15.565Z,11.00
2023-03-24T18:39:45.353Z,10.90
2023-03-24T18:42:15.244Z,10.90
2023-03-24T18:44:45.861Z,10.90
2023-03-24T18:47:18.489Z,10.90
2023-03-24T18:49:48.351Z,10.80
2023-03-24T18:52:18.403Z,10.80
2023-03-24T18:54:49.172Z,10.70
2023-03-24T18:57:20.370Z,10.70
2023-03-24T18:59:50.225Z,10.80
2023-03-24T19:02:23.045Z,10.80
2023-03-24T19:04:53.812Z,10.80
2023-03-24T19:07:26.395Z,10.80
2023-03-24T19:09:56.662Z,10.90
2023-03-24T19:12:26.566Z,10.90
2023-03-24T19:14:56.958Z,10.80
2023-03-24T19:17:30.266Z,10.80
2023-03-24T19:20:00.168Z,10.80
2023-03-24T19:22:30.043Z,10.80
2023-03-24T19:24:59.918Z,10.80
2023-03-24T19:27:29.916Z,10.70
2023-03-24T19:29:59.891Z,10.70
2023-03-24T19:32:32.302Z,10.70
2023-03-24T19:35:02.179Z,10.60
2023-03-24T19:37:32.219Z,10.60
2023-03-24T19:40:02.248Z,10.60
2023-03-24T19:42:33.397Z,10.60
2023-03-24T19:45:03.296Z,10.70
2023-03-24T19:47:36.125Z,10.70
2023-03-24T19:50:07.498Z,10.60
2023-03-24T19:52:37.529Z,10.60
2023-03-24T19:55:08.789Z,10.60
2023-03-24T19:57:38.897Z,10.60
2023-03-24T20:00:13.941Z,10.60
2023-03-24T20:02:46.490Z,10.60
2023-03-24T20:05:16.429Z,10.60
2023-03-24T20:07:46.573Z,10.60
2023-03-24T20:10:16.453Z,10.60
2023-03-24T20:12:46.305Z,10.60
2023-03-24T20:15:16.511Z,10.50
2023-03-24T20:17:49.108Z,10.50
2023-03-24T20:20:19.037Z,10.50
2023-03-24T20:22:49.129Z,10.60
2023-03-24T20:25:20.700Z,10.50
2023-03-24T20:27:50.673Z,10.50
2023-03-24T20:30:22.092Z,10.50
2023-03-24T20:32:58.647Z,10.50
2023-03-24T20:35:28.961Z,10.40
2023-03-24T20:37:58.804Z,10.40
2023-03-24T20:40:28.617Z,10.40
2023-03-24T20:42:58.973Z,10.40
2023-03-24T20:45:28.815Z,10.40
2023-03-24T20:48:01.379Z,10.50
2023-03-24T20:50:31.395Z,10.50
2023-03-24T20:53:01.279Z,10.40
2023-03-24T20:55:31.127Z,10.40
2023-03-24T20:58:01.403Z,10.40
2023-03-24T21:00:31.356Z,10.40
2023-03-24T21:03:04.639Z,10.40
2023-03-24T21:05:35.349Z,10.40
2023-03-24T21:08:05.313Z,10.40
2023-03-24T21:10:38.279Z,10.40
2023-03-24T21:13:08.732Z,10.40
2023-03-24T21:15:45.108Z,10.30
2023-03-24T21:18:17.665Z,10.30
2023-03-24T21:20:55.137Z,10.30
2023-03-24T21:23:25.201Z,10.30
2023-03-24T21:25:55.732Z,10.30
2023-03-24T21:28:28.220Z,10.20
2023-03-24T21:30:58.150Z,10.30
2023-03-24T21:33:30.675Z,10.30
2023-03-24T21:36:00.690Z,10.30
2023-03-24T21:38:30.603Z,10.30
2023-03-24T21:41:01.646Z,10.30
2023-03-24T21:43:31.773Z,10.30
2023-03-24T21:46:03.691Z,10.30
2023-03-24T21:48:40.173Z,10.30
2023-03-24T21:51:10.217Z,10.30
2023-03-24T21:53:40.053Z,10.30
2023-03-24T21:56:10.910Z,10.30
2023-03-24T21:58:40.948Z,10.30
2023-03-24T22:01:11.821Z,10.30
2023-03-24T22:03:44.372Z,10.20
2023-03-24T22:06:14.243Z,10.20
2023-03-24T22:08:44.697Z,10.20
2023-03-24T22:11:15.495Z,10.20
2023-03-24T22:13:45.657Z,10.20
2023-03-24T22:16:16.223Z,10.20
2023-03-24T22:18:50.059Z,10.20
2023-03-24T22:21:19.872Z,10.20
2023-03-24T22:23:49.737Z,10.20
2023-03-24T22:26:19.955Z,10.30
2023-03-24T22:28:50.718Z,10.30
2023-03-24T22:31:23.185Z,10.30
2023-03-24T22:33:56.435Z,10.30
2023-03-24T22:36:26.371Z,10.30
2023-03-24T22:38:58.510Z,10.30
2023-03-24T22:41:28.418Z,10.20
2023-03-24T22:43:58.285Z,10.30
2023-03-24T22:46:28.323Z,10.30
2023-03-24T22:49:00.803Z,10.30
2023-03-24T22:51:31.590Z,10.40
2023-03-24T22:54:01.469Z,10.40
2023-03-24T22:56:31.400Z,10.40
2023-03-24T22:59:01.350Z,10.40
2023-03-24T23:01:31.389Z,10.30
2023-03-24T23:04:05.209Z,10.20
2023-03-24T23:06:35.289Z,10.00
2023-03-24T23:09:06.145Z,9.90
2023-03-24T23:11:36.036Z,9.90
2023-03-24T23:14:07.321Z,9.80
2023-03-24T23:16:40.514Z,9.70
2023-03-24T23:19:20.782Z,9.60
2023-03-24T23:21:50.644Z,9.30
2023-03-24T23:24:21.006Z,9.20
2023-03-24T23:26:50.823Z,9.20
2023-03-24T23:29:20.805Z,9.10
2023-03-24T23:31:50.782Z,9.00
2023-03-24T23:34:25.867Z,9.00
2023-03-24T23:36:55.735Z,9.10
2023-03-24T23:39:26.333Z,9.00
2023-03-24T23:41:56.525Z,9.00
2023-03-24T23:44:26.430Z,9.10
2023-03-24T23:46:56.592Z,9.00
2023-03-24T23:49:29.040Z,9.10
2023-03-24T23:51:58.909Z,9.10
2023-03-24T23:54:28.808Z,9.10
2023-03-24T23:56:58.793Z,9.10
2023-03-24T23:59:28.792Z,9.10
